createdAt,value
2017-06-01T00:02:24.021Z,10.24
2017-06-01T00:04:52.878Z,10.70
2017-06-01T00:07:21.765Z,12.58
2017-06-01T00:09:50.603Z,10.94
2017-06-01T00:12:19.472Z,11.54
2017-06-01T00:14:48.350Z,10.48
2017-06-01T00:17:17.227Z,10.44
2017-06-01T00:19:46.085Z,16.76
2017-06-01T00:22:14.317Z,10.40
2017-06-01T00:24:43.171Z,9.94
2017-06-01T00:27:12.016Z,10.18
2017-06-01T00:29:40.916Z,10.04
2017-06-01T00:32:09.780Z,9.16
2017-06-01T00:34:38.635Z,9.62
2017-06-01T00:37:07.554Z,12.94
2017-06-01T00:39:36.405Z,11.38
2017-06-01T00:42:04.487Z,8.66
2017-06-01T00:44:33.379Z,10.14
2017-06-01T00:47:02.219Z,9.74
2017-06-01T00:49:31.118Z,9.72
2017-06-01T00:51:59.988Z,11.18
2017-06-01T00:54:28.844Z,9.92
2017-06-01T00:56:57.868Z,10.34
2017-06-01T00:59:25.966Z,8.78
2017-06-01T01:01:54.805Z,9.94
2017-06-01T01:04:23.693Z,9.78
2017-06-01T01:06:52.545Z,10.02
2017-06-01T01:09:21.401Z,9.40
2017-06-01T01:11:50.301Z,11.20
2017-06-01T01:14:19.142Z,9.20
2017-06-01T01:16:48.012Z,9.70
2017-06-01T01:19:17.009Z,11.48
2017-06-01T01:21:45.096Z,10.62
2017-06-01T01:24:13.954Z,11.08
2017-06-01T01:26:42.867Z,11.78
2017-06-01T01:29:10.944Z,11.14
2017-06-01T01:31:39.812Z,13.22
2017-06-01T01:34:08.701Z,12.36
2017-06-01T01:36:37.552Z,11.66
2017-06-01T01:39:13.567Z,12.16
2017-06-01T01:41:43.694Z,10.10
2017-06-01T01:44:11.778Z,11.08
2017-06-01T01:46:43.122Z,10.12
2017-06-01T01:49:11.981Z,11.05
2017-06-01T01:51:40.073Z,10.72
2017-06-01T01:54:08.957Z,10.56
2017-06-01T01:56:37.812Z,11.28
2017-06-01T01:59:06.705Z,11.00
2017-06-01T02:01:35.560Z,10.46
2017-06-01T02:04:04.418Z,11.30
2017-06-01T02:06:33.413Z,11.40
2017-06-01T02:09:02.281Z,10.36
2017-06-01T02:11:30.389Z,9.94
2017-06-01T02:13:59.277Z,10.57
2017-06-01T02:16:28.173Z,9.62
2017-06-01T02:18:57.176Z,10.72
2017-06-01T02:21:26.038Z,10.92
2017-06-01T02:23:54.892Z,11.28
2017-06-01T02:26:23.777Z,9.86
2017-06-01T02:28:52.650Z,12.33
2017-06-01T02:31:21.540Z,11.26
2017-06-01T02:33:50.447Z,10.70
2017-06-01T02:36:19.326Z,11.06
2017-06-01T02:38:48.348Z,11.44
2017-06-01T02:41:17.237Z,11.17
2017-06-01T02:43:46.090Z,9.98
2017-06-01T02:46:15.045Z,10.28
2017-06-01T02:48:43.905Z,10.85
2017-06-01T02:51:12.765Z,13.07
2017-06-01T02:53:41.661Z,10.17
2017-06-01T02:56:10.535Z,11.02
2017-06-01T02:58:39.388Z,9.70
2017-06-01T03:01:08.277Z,11.18
2017-06-01T03:03:37.133Z,10.80
2017-06-01T03:06:06.134Z,11.72
2017-06-01T03:08:35.002Z,10.48
2017-06-01T03:11:03.864Z,10.50
2017-06-01T03:13:32.773Z,10.63
2017-06-01T03:16:01.657Z,11.28
2017-06-01T03:18:30.530Z,11.60
2017-06-01T03:20:59.425Z,11.32
2017-06-01T03:23:28.285Z,10.75
2017-06-01T03:25:57.148Z,11.75
2017-06-01T03:28:29.642Z,10.07
2017-06-01T03:30:58.496Z,11.28
2017-06-01T03:33:28.652Z,11.87
2017-06-01T03:35:57.516Z,11.38
2017-06-01T03:38:26.377Z,10.72
2017-06-01T03:40:56.460Z,11.88
2017-06-01T03:43:25.316Z,12.13
2017-06-01T03:45:54.337Z,11.92
2017-06-01T03:48:23.203Z,13.40
2017-06-01T03:50:52.071Z,12.00
2017-06-01T03:53:20.965Z,10.77
2017-06-01T03:55:49.056Z,12.17
2017-06-01T03:58:17.913Z,13.17
2017-06-01T04:00:46.806Z,12.58
2017-06-01T04:03:15.672Z,11.47
2017-06-01T04:05:44.533Z,12.23
2017-06-01T04:08:13.554Z,12.48
2017-06-01T04:10:42.415Z,11.00
2017-06-01T04:13:10.500Z,11.48
2017-06-01T04:15:39.398Z,10.72
2017-06-01T04:18:08.256Z,10.52
2017-06-01T04:20:37.121Z,10.97
2017-06-01T04:23:06.014Z,11.88
2017-06-01T04:25:34.885Z,10.97
2017-06-01T04:28:05.582Z,11.92
2017-06-01T04:30:34.449Z,14.12
2017-06-01T04:33:03.313Z,12.03
2017-06-01T04:35:32.221Z,12.75
2017-06-01T04:38:01.078Z,11.73
2017-06-01T04:40:29.945Z,11.23
2017-06-01T04:42:58.962Z,12.17
2017-06-01T04:45:27.833Z,12.30
2017-06-01T04:47:56.724Z,14.12
2017-06-01T04:50:25.589Z,12.68
2017-06-01T04:52:54.437Z,10.80
2017-06-01T04:55:23.325Z,10.57
2017-06-01T04:57:52.198Z,12.12
2017-06-01T05:00:22.843Z,11.48
2017-06-01T05:02:51.689Z,14.60
2017-06-01T05:05:20.565Z,11.92
2017-06-01T05:07:51.781Z,12.43
2017-06-01T05:10:20.635Z,13.06
2017-06-01T05:12:49.507Z,12.20
2017-06-01T05:15:18.405Z,15.78
2017-06-01T05:17:48.961Z,15.06
2017-06-01T05:20:17.825Z,14.07
2017-06-01T05:22:48.395Z,13.84
2017-06-01T05:25:17.300Z,12.97
2017-06-01T05:27:46.177Z,12.62
2017-06-01T05:30:15.057Z,12.28
2017-06-01T05:32:43.957Z,12.14
2017-06-01T05:35:12.818Z,13.92
2017-06-01T05:37:41.682Z,13.14
2017-06-01T05:40:10.674Z,12.32
2017-06-01T05:42:39.533Z,12.52
2017-06-01T05:45:08.393Z,12.72
2017-06-01T05:47:37.326Z,16.04
2017-06-01T05:50:06.174Z,13.16
2017-06-01T05:52:35.024Z,14.30
2017-06-01T05:55:03.926Z,14.68
2017-06-01T05:57:32.792Z,12.38
2017-06-01T06:00:01.649Z,14.50
2017-06-01T06:02:30.639Z,12.62
2017-06-01T06:04:59.502Z,14.66
2017-06-01T06:07:28.395Z,14.54
2017-06-01T06:09:57.252Z,13.70
2017-06-01T06:12:26.113Z,12.84
2017-06-01T06:14:55.117Z,15.62
2017-06-01T06:17:24.008Z,12.22
2017-06-01T06:19:52.864Z,14.22
2017-06-01T06:22:21.757Z,15.18
2017-06-01T06:24:50.628Z,23.76
2017-06-01T06:27:19.517Z,14.98
2017-06-01T06:29:48.371Z,25.64
2017-06-01T06:32:17.220Z,16.14
2017-06-01T06:34:46.120Z,14.76
2017-06-01T06:37:14.988Z,15.64
2017-06-01T06:39:43.838Z,14.46
2017-06-01T06:42:19.297Z,12.46
2017-06-01T06:44:47.389Z,13.84
2017-06-01T06:47:16.251Z,14.74
2017-06-01T06:49:45.257Z,14.34
2017-06-01T06:52:14.132Z,14.64
2017-06-01T06:54:42.994Z,13.60
2017-06-01T06:57:11.882Z,14.84
2017-06-01T06:59:40.749Z,14.18
2017-06-01T07:02:09.593Z,14.10
2017-06-01T07:04:38.507Z,16.34
2017-06-01T07:07:07.383Z,21.60
2017-06-01T07:09:36.304Z,14.56
2017-06-01T07:12:05.152Z,15.50
2017-06-01T07:14:34.016Z,13.46
2017-06-01T07:17:03.640Z,13.78
2017-06-01T07:19:32.506Z,18.56
2017-06-01T07:22:01.369Z,14.58
2017-06-01T07:24:30.380Z,13.86
2017-06-01T07:26:59.251Z,13.94
2017-06-01T07:29:28.118Z,13.98
2017-06-01T07:31:57.040Z,13.60
2017-06-01T07:34:25.900Z,12.70
2017-06-01T07:36:54.769Z,12.02
2017-06-01T07:39:23.749Z,11.58
2017-06-01T07:41:52.602Z,10.20
2017-06-01T07:44:21.461Z,9.62
2017-06-01T07:46:49.597Z,11.92
2017-06-01T07:49:18.466Z,9.24
2017-06-01T07:51:48.533Z,11.72
2017-06-01T07:54:18.225Z,9.68
2017-06-01T07:56:47.404Z,14.04
2017-06-01T07:59:16.265Z,12.96
2017-06-01T08:01:45.165Z,15.00
2017-06-01T08:04:13.257Z,11.22
2017-06-01T08:06:42.113Z,9.14
2017-06-01T08:09:11.834Z,12.22
2017-06-01T08:11:40.693Z,12.50
2017-06-01T08:14:10.870Z,12.94
2017-06-01T08:16:39.736Z,13.94
2017-06-01T08:19:08.617Z,11.24
2017-06-01T08:21:37.522Z,11.94
2017-06-01T08:24:06.391Z,11.72
2017-06-01T08:26:35.253Z,11.72
2017-06-01T08:29:11.397Z,12.82
2017-06-01T08:31:40.252Z,9.62
2017-06-01T08:34:09.097Z,9.92
2017-06-01T08:36:37.998Z,8.96
2017-06-01T08:39:06.853Z,8.48
2017-06-01T08:41:35.691Z,6.12
2017-06-01T08:44:04.584Z,5.98
2017-06-01T08:46:33.431Z,8.92
2017-06-01T08:49:02.273Z,8.82
2017-06-01T08:51:31.194Z,8.10
2017-06-01T08:54:00.053Z,7.40
2017-06-01T08:56:28.917Z,7.44
2017-06-01T08:58:58.638Z,6.74
2017-06-01T09:01:27.488Z,6.36
2017-06-01T09:03:56.340Z,7.26
2017-06-01T09:06:25.290Z,6.44
2017-06-01T09:08:54.144Z,4.96
2017-06-01T09:11:23.003Z,8.22
2017-06-01T09:13:51.909Z,7.48
2017-06-01T09:16:21.556Z,9.34
2017-06-01T09:18:50.414Z,7.44
2017-06-01T09:21:18.535Z,8.78
2017-06-01T09:23:47.553Z,6.72
2017-06-01T09:26:16.400Z,7.24
2017-06-01T09:28:44.482Z,8.42
2017-06-01T09:31:13.365Z,5.98
2017-06-01T09:33:42.221Z,6.16
2017-06-01T09:36:11.069Z,7.52
2017-06-01T09:38:43.624Z,6.18
2017-06-01T09:41:12.465Z,5.44
2017-06-01T09:43:41.333Z,6.24
2017-06-01T09:46:10.177Z,5.84
2017-06-01T09:48:39.061Z,6.18
2017-06-01T09:51:07.905Z,6.00
2017-06-01T09:53:36.743Z,5.24
2017-06-01T09:56:05.660Z,5.00
2017-06-01T09:58:34.493Z,5.44
2017-06-01T10:01:03.359Z,5.16
2017-06-01T10:03:32.240Z,5.32
2017-06-01T10:06:01.076Z,4.38
2017-06-01T10:08:29.917Z,4.98
2017-06-01T10:10:58.797Z,5.28
2017-06-01T10:13:27.637Z,4.18
2017-06-01T10:15:56.544Z,5.30
2017-06-01T10:18:26.744Z,4.72
2017-06-01T10:20:55.593Z,4.14
2017-06-01T10:23:25.690Z,4.00
2017-06-01T10:25:54.537Z,5.26
2017-06-01T10:28:23.389Z,5.72
2017-06-01T10:30:52.277Z,3.76
2017-06-01T10:33:21.129Z,4.24
2017-06-01T10:35:53.633Z,4.02
2017-06-01T10:38:22.490Z,4.57
2017-06-01T10:40:51.328Z,3.70
2017-06-01T10:43:20.201Z,3.60
2017-06-01T10:45:48.288Z,5.84
2017-06-01T10:48:17.174Z,5.52
2017-06-01T10:50:46.029Z,4.38
2017-06-01T10:53:14.890Z,4.14
2017-06-01T10:55:43.890Z,4.64
2017-06-01T10:58:12.748Z,4.28
2017-06-01T11:00:41.601Z,5.02
2017-06-01T11:03:10.489Z,5.68
2017-06-01T11:05:39.342Z,6.92
2017-06-01T11:08:08.221Z,6.12
2017-06-01T11:10:37.116Z,5.04
2017-06-01T11:13:05.974Z,4.72
2017-06-01T11:15:34.815Z,3.60
2017-06-01T11:18:05.863Z,4.52
2017-06-01T11:20:34.718Z,4.54
2017-06-01T11:23:03.589Z,4.90
2017-06-01T11:25:32.484Z,4.40
2017-06-01T11:28:01.324Z,3.70
2017-06-01T11:30:37.649Z,4.02
2017-06-01T11:33:06.617Z,3.78
2017-06-01T11:35:35.492Z,3.86
2017-06-01T11:38:04.389Z,4.24
2017-06-01T11:40:33.248Z,3.92
2017-06-01T11:43:02.148Z,3.72
2017-06-01T11:45:31.037Z,4.56
2017-06-01T11:47:59.883Z,4.18
2017-06-01T11:50:28.752Z,4.70
2017-06-01T11:52:57.665Z,5.00
2017-06-01T11:55:26.519Z,4.00
2017-06-01T11:57:55.414Z,4.46
2017-06-01T12:00:24.266Z,5.14
2017-06-01T12:02:53.114Z,6.60
2017-06-01T12:05:22.001Z,4.42
2017-06-01T12:07:50.864Z,5.64
2017-06-01T12:10:19.730Z,4.38
2017-06-01T12:12:50.338Z,3.80
2017-06-01T12:15:20.926Z,6.14
2017-06-01T12:17:52.689Z,3.80
2017-06-01T12:20:21.550Z,4.74
2017-06-01T12:22:49.670Z,3.76
2017-06-01T12:25:18.514Z,5.60
2017-06-01T12:27:47.366Z,3.96
2017-06-01T12:30:16.285Z,4.24
2017-06-01T12:32:45.133Z,3.28
2017-06-01T12:35:13.982Z,5.26
2017-06-01T12:37:42.874Z,3.32
2017-06-01T12:40:11.718Z,3.54
2017-06-01T12:42:40.576Z,3.46
2017-06-01T12:45:16.832Z,5.68
2017-06-01T12:47:45.773Z,3.60
2017-06-01T12:50:14.665Z,3.54
2017-06-01T12:52:43.518Z,3.22
2017-06-01T12:55:12.385Z,4.50
2017-06-01T12:57:41.249Z,5.30
2017-06-01T13:00:10.119Z,3.32
2017-06-01T13:02:46.909Z,3.50
2017-06-01T13:05:23.558Z,3.58
2017-06-01T13:07:52.525Z,4.36
2017-06-01T13:10:21.390Z,2.90
2017-06-01T13:12:50.234Z,4.06
2017-06-01T13:15:20.357Z,4.02
2017-06-01T13:18:04.571Z,3.14
2017-06-01T13:20:33.478Z,3.10
2017-06-01T13:23:02.333Z,4.26
2017-06-01T13:25:31.181Z,3.28
2017-06-01T13:28:00.085Z,3.02
2017-06-01T13:30:28.982Z,3.52
2017-06-01T13:32:57.842Z,6.34
2017-06-01T13:35:26.866Z,2.88
2017-06-01T13:37:55.729Z,3.02
2017-06-01T13:40:24.606Z,3.30
2017-06-01T13:42:53.509Z,2.90
2017-06-01T13:45:22.355Z,2.90
2017-06-01T13:47:51.211Z,2.72
2017-06-01T13:50:20.267Z,3.06
2017-06-01T13:52:49.121Z,3.84
2017-06-01T13:55:25.216Z,2.66
2017-06-01T13:57:54.202Z,2.56
2017-06-01T14:00:23.055Z,2.96
2017-06-01T14:02:51.983Z,2.48
2017-06-01T14:05:20.832Z,3.36
2017-06-01T14:07:49.721Z,3.68
2017-06-01T14:10:18.602Z,2.60
2017-06-01T14:12:47.483Z,3.38
2017-06-01T14:15:23.736Z,3.58
2017-06-01T14:17:55.999Z,3.28
2017-06-01T14:20:26.196Z,4.14
2017-06-01T14:22:55.061Z,4.64
2017-06-01T14:25:23.939Z,3.02
2017-06-01T14:27:52.799Z,3.44
2017-06-01T14:30:21.720Z,3.66
2017-06-01T14:32:50.582Z,5.46
2017-06-01T14:35:19.440Z,3.92
2017-06-01T14:37:48.469Z,2.62
2017-06-01T14:40:17.327Z,2.54
2017-06-01T14:42:46.182Z,3.88
2017-06-01T14:45:15.190Z,2.50
2017-06-01T14:47:44.050Z,2.50
2017-06-01T14:50:12.913Z,3.18
2017-06-01T14:52:41.795Z,2.30
2017-06-01T14:55:10.684Z,2.70
2017-06-01T14:57:39.582Z,6.90
2017-06-01T15:00:08.503Z,2.30
2017-06-01T15:02:37.354Z,2.70
2017-06-01T15:05:06.207Z,2.38
2017-06-01T15:07:36.972Z,7.38
2017-06-01T15:10:05.833Z,3.12
2017-06-01T15:12:34.694Z,4.08
2017-06-01T15:15:03.598Z,4.08
2017-06-01T15:17:32.478Z,2.64
2017-06-01T15:20:01.413Z,3.30
2017-06-01T15:22:30.269Z,2.86
2017-06-01T15:24:59.138Z,3.28
2017-06-01T15:27:28.714Z,7.70
2017-06-01T15:29:57.595Z,2.88
2017-06-01T15:32:26.450Z,4.18
2017-06-01T15:34:55.349Z,2.60
2017-06-01T15:37:24.244Z,3.92
2017-06-01T15:39:53.115Z,2.78
2017-06-01T15:42:22.368Z,2.54
2017-06-01T15:44:51.231Z,2.98
2017-06-01T15:47:20.095Z,2.86
2017-06-01T15:49:49.922Z,2.96
2017-06-01T15:52:18.772Z,2.54
2017-06-01T15:54:47.643Z,2.32
2017-06-01T15:57:16.601Z,3.68
2017-06-01T15:59:45.407Z,2.90
2017-06-01T16:02:14.320Z,6.06
2017-06-01T16:04:43.194Z,3.10
2017-06-01T16:07:12.058Z,3.12
2017-06-01T16:09:41.060Z,2.94
2017-06-01T16:12:09.936Z,3.00
2017-06-01T16:14:38.846Z,2.64
2017-06-01T16:17:07.023Z,4.68
2017-06-01T16:19:35.895Z,2.56
2017-06-01T16:22:04.811Z,3.10
2017-06-01T16:24:33.691Z,3.28
2017-06-01T16:27:02.553Z,2.58
2017-06-01T16:29:38.482Z,2.74
2017-06-01T16:32:14.905Z,2.48
2017-06-01T16:34:51.817Z,3.10
2017-06-01T16:37:20.773Z,3.06
2017-06-01T16:39:49.658Z,4.92
2017-06-01T16:42:18.590Z,2.64
2017-06-01T16:44:47.461Z,4.48
2017-06-01T16:47:16.347Z,2.70
2017-06-01T16:49:52.494Z,2.40
2017-06-01T16:52:21.465Z,3.38
2017-06-01T16:54:50.350Z,5.02
2017-06-01T16:57:19.233Z,2.94
2017-06-01T16:59:48.173Z,3.50
2017-06-01T17:02:17.078Z,2.80
2017-06-01T17:04:46.016Z,3.16
2017-06-01T17:07:14.962Z,3.14
2017-06-01T17:09:43.835Z,2.30
2017-06-01T17:12:12.714Z,3.78
2017-06-01T17:14:41.590Z,2.54
2017-06-01T17:17:26.108Z,3.24
2017-06-01T17:20:02.962Z,3.18
2017-06-01T17:22:39.573Z,2.40
2017-06-01T17:25:08.550Z,10.66
2017-06-01T17:27:37.409Z,4.04
2017-06-01T17:30:06.289Z,2.74
2017-06-01T17:32:35.171Z,3.82
2017-06-01T17:35:04.019Z,4.88
2017-06-01T17:37:32.954Z,3.04
2017-06-01T17:40:01.885Z,4.14
2017-06-01T17:42:30.739Z,4.12
2017-06-01T17:44:59.628Z,2.60
2017-06-01T17:47:28.538Z,2.60
2017-06-01T17:49:57.414Z,6.54
2017-06-01T17:52:26.298Z,5.32
2017-06-01T17:54:55.162Z,2.86
2017-06-01T17:57:27.613Z,5.54
2017-06-01T17:59:56.498Z,2.68
2017-06-01T18:02:25.380Z,2.76
2017-06-01T18:04:55.540Z,4.74
2017-06-01T18:07:24.406Z,3.32
2017-06-01T18:09:54.546Z,3.16
2017-06-01T18:12:23.446Z,2.98
2017-06-01T18:14:52.317Z,2.54
2017-06-01T18:17:28.750Z,5.42
2017-06-01T18:20:05.376Z,2.88
2017-06-01T18:22:33.594Z,3.22
2017-06-01T18:25:02.455Z,3.90
2017-06-01T18:27:31.323Z,8.34
2017-06-01T18:30:00.224Z,8.74
2017-06-01T18:32:29.090Z,2.70
2017-06-01T18:35:05.964Z,3.30
2017-06-01T18:37:42.163Z,3.62
2017-06-01T18:40:11.153Z,3.60
2017-06-01T18:42:40.037Z,5.62
2017-06-01T18:45:08.916Z,3.02
2017-06-01T18:47:37.828Z,2.86
2017-06-01T18:50:06.702Z,3.48
2017-06-01T18:52:35.570Z,3.40
2017-06-01T18:55:11.595Z,3.80
2017-06-01T18:57:47.580Z,3.40
2017-06-01T19:00:16.550Z,6.70
2017-06-01T19:02:45.409Z,4.24
2017-06-01T19:05:14.268Z,3.94
2017-06-01T19:07:43.161Z,3.90
2017-06-01T19:10:12.048Z,3.56
2017-06-01T19:12:40.930Z,4.88
2017-06-01T19:15:16.989Z,5.78
2017-06-01T19:17:53.523Z,3.46
2017-06-01T19:20:22.535Z,3.52
2017-06-01T19:22:51.387Z,3.76
2017-06-01T19:25:20.254Z,5.10
2017-06-01T19:27:49.125Z,4.44
2017-06-01T19:30:26.032Z,5.94
2017-06-01T19:33:02.693Z,4.18
2017-06-01T19:35:39.202Z,3.74
2017-06-01T19:38:08.169Z,6.32
2017-06-01T19:40:37.055Z,3.56
2017-06-01T19:43:05.948Z,6.24
2017-06-01T19:45:34.869Z,4.10
2017-06-01T19:48:03.740Z,3.94
2017-06-01T19:50:32.597Z,5.18
2017-06-01T19:53:01.495Z,5.42
2017-06-01T19:55:30.358Z,3.72
2017-06-01T19:57:59.256Z,6.62
2017-06-01T20:00:28.149Z,4.00
2017-06-01T20:02:56.981Z,3.72
2017-06-01T20:05:25.855Z,3.70
2017-06-01T20:07:55.785Z,6.44
2017-06-01T20:10:24.630Z,3.96
2017-06-01T20:12:53.517Z,4.92
2017-06-01T20:15:22.381Z,3.92
2017-06-01T20:17:51.256Z,4.22
2017-06-01T20:20:20.138Z,4.80
2017-06-01T20:22:49.006Z,4.30
2017-06-01T20:25:17.864Z,4.08
2017-06-01T20:27:53.874Z,3.32
2017-06-01T20:30:22.875Z,4.20
2017-06-01T20:32:51.728Z,5.34
2017-06-01T20:35:20.637Z,4.30
2017-06-01T20:37:49.500Z,4.38
2017-06-01T20:40:18.372Z,4.26
2017-06-01T20:42:55.186Z,3.60
2017-06-01T20:45:24.086Z,4.78
2017-06-01T20:47:52.977Z,3.60
2017-06-01T20:50:21.847Z,4.76
2017-06-01T20:52:50.707Z,3.98
2017-06-01T20:55:19.579Z,4.02
2017-06-01T20:57:48.460Z,4.08
2017-06-01T21:00:19.083Z,4.00
2017-06-01T21:02:47.931Z,4.60
2017-06-01T21:05:16.792Z,3.94
2017-06-01T21:07:45.681Z,4.44
2017-06-01T21:10:14.541Z,6.64
2017-06-01T21:12:43.389Z,3.62
2017-06-01T21:15:12.285Z,4.06
2017-06-01T21:17:44.829Z,4.36
2017-06-01T21:20:13.699Z,4.22
2017-06-01T21:22:42.566Z,4.68
2017-06-01T21:25:11.461Z,5.20
2017-06-01T21:27:40.318Z,5.60
2017-06-01T21:30:09.200Z,4.66
2017-06-01T21:32:38.118Z,4.34
2017-06-01T21:35:06.962Z,5.02
2017-06-01T21:37:35.812Z,3.80
2017-06-01T21:40:04.708Z,7.46
2017-06-01T21:42:33.560Z,4.00
2017-06-01T21:45:02.451Z,3.98
2017-06-01T21:47:31.369Z,3.44
2017-06-01T21:50:00.202Z,4.86
2017-06-01T21:52:29.066Z,3.70
2017-06-01T21:54:58.062Z,3.76
2017-06-01T21:57:26.944Z,4.32
2017-06-01T21:59:55.808Z,3.60
2017-06-01T22:02:24.712Z,3.82
2017-06-01T22:04:53.555Z,3.80
2017-06-01T22:07:22.432Z,5.40
2017-06-01T22:09:51.318Z,4.08
2017-06-01T22:12:20.309Z,3.44
2017-06-01T22:14:49.161Z,6.06
2017-06-01T22:17:18.040Z,4.12
2017-06-01T22:19:46.937Z,4.80
2017-06-01T22:22:15.788Z,3.94
2017-06-01T22:24:44.653Z,3.48
2017-06-01T22:27:15.225Z,3.58
2017-06-01T22:29:44.086Z,5.60
2017-06-01T22:32:14.186Z,4.38
2017-06-01T22:34:43.107Z,3.58
2017-06-01T22:37:11.966Z,3.44
2017-06-01T22:39:40.800Z,3.76
2017-06-01T22:42:09.680Z,4.36
2017-06-01T22:44:38.532Z,3.56
2017-06-01T22:47:07.436Z,3.88
2017-06-01T22:49:36.292Z,3.92
2017-06-01T22:52:05.165Z,4.92
2017-06-01T22:54:37.639Z,3.42
2017-06-01T22:57:06.509Z,4.56
2017-06-01T22:59:35.398Z,3.80
2017-06-01T23:02:03.505Z,3.80
2017-06-01T23:04:32.361Z,3.92
2017-06-01T23:07:01.245Z,5.46
2017-06-01T23:09:30.113Z,3.82
2017-06-01T23:11:58.964Z,4.30
2017-06-01T23:14:27.999Z,3.86
2017-06-01T23:17:07.718Z,3.64
2017-06-01T23:19:36.645Z,4.00
2017-06-01T23:22:05.492Z,4.48
2017-06-01T23:24:34.352Z,4.14
2017-06-01T23:27:03.232Z,4.98
2017-06-01T23:29:32.093Z,3.78
2017-06-01T23:32:00.940Z,3.94
2017-06-01T23:34:29.846Z,3.98
2017-06-01T23:36:58.705Z,4.16
2017-06-01T23:39:27.570Z,4.20
2017-06-01T23:41:57.360Z,5.20
2017-06-01T23:44:26.212Z,4.52
2017-06-01T23:46:55.077Z,4.04
2017-06-01T23:49:23.955Z,4.86
2017-06-01T23:51:52.042Z,4.44
2017-06-01T23:54:21.750Z,5.12
2017-06-01T23:56:49.844Z,4.98
2017-06-01T23:59:18.706Z,4.28
